Time;durP1;ratioP1;P1;durP2;ratioP2;P2;SDS_P1;SDS_P2;PMS_P1;PMS_P2;Temp;Humidity;BMP_temperature;BMP_pressure;BME280_temperature;BME280_humidity;BME280_pressure;Samples;Min_cycle;Max_cycle;Signal;HPM_P1;HPM_P2
2023/05/08 00:01:55;;;;;;;9.30;4.53;;;16.50;1.00;;;;;;4970338;28;20475;-55
2023/05/08 00:04:20;;;;;;;8.90;4.70;;;16.30;1.00;;;;;;4970804;28;20514;-55
2023/05/08 00:06:47;;;;;;;9.32;4.40;;;16.30;1.00;;;;;;4970003;28;20408;-56
2023/05/08 00:09:12;;;;;;;9.90;4.93;;;16.30;1.00;;;;;;4967617;28;20434;-55
2023/05/08 00:11:38;;;;;;;10.43;4.60;;;16.30;1.00;;;;;;4953977;28;20531;-55
2023/05/08 00:14:05;;;;;;;10.40;5.13;;;16.30;1.00;;;;;;4970355;28;20407;-55
2023/05/08 00:16:31;;;;;;;8.38;4.30;;;16.20;1.00;;;;;;4971148;28;20412;-55
2023/05/08 00:18:56;;;;;;;10.68;4.50;;;16.40;1.00;;;;;;4970216;28;20406;-55
2023/05/08 00:21:22;;;;;;;8.63;4.30;;;16.40;1.00;;;;;;4970610;28;20400;-55
2023/05/08 00:23:47;;;;;;;9.05;4.80;;;16.40;1.00;;;;;;4970487;28;20848;-56
2023/05/08 00:26:13;;;;;;;13.77;7.97;;;16.40;1.00;;;;;;4970999;28;20431;-55
2023/05/08 00:28:38;;;;;;;19.90;11.87;;;16.30;1.00;;;;;;4970227;28;20416;-55
2023/05/08 00:31:04;;;;;;;15.57;9.30;;;16.30;1.00;;;;;;4970522;28;20450;-55
2023/05/08 00:33:30;;;;;;;16.25;8.80;;;16.20;1.00;;;;;;4970593;28;20435;-56
2023/05/08 00:36:03;;;;;;;16.90;9.50;;;16.20;1.00;;;;;;4969712;28;20800;-55
2023/05/08 00:38:35;;;;;;;16.20;8.48;;;16.10;1.00;;;;;;4969988;28;20401;-55
2023/05/08 00:41:01;;;;;;;16.42;9.07;;;16.20;1.00;;;;;;4969777;28;20411;-55
2023/05/08 00:43:28;;;;;;;15.05;8.40;;;16.20;1.00;;;;;;4970629;28;20984;-55
2023/05/08 00:45:55;;;;;;;15.65;8.10;;;16.20;1.00;;;;;;4969543;28;20443;-55
2023/05/08 00:48:24;;;;;;;15.30;8.52;;;16.20;1.00;;;;;;4970717;28;20403;-55
2023/05/08 00:50:53;;;;;;;14.45;7.75;;;16.20;1.00;;;;;;4969825;28;20956;-55
2023/05/08 00:53:21;;;;;;;14.80;7.70;;;16.20;1.00;;;;;;4970767;28;20404;-55
2023/05/08 00:55:47;;;;;;;13.53;7.50;;;16.00;1.00;;;;;;4969982;28;20407;-56
2023/05/08 00:58:13;;;;;;;12.05;6.53;;;16.10;1.00;;;;;;4970133;28;20493;-55
2023/05/08 01:00:40;;;;;;;13.38;7.88;;;16.00;1.00;;;;;;4970399;28;20580;-55
2023/05/08 01:03:08;;;;;;;13.02;6.65;;;16.00;1.00;;;;;;4970031;28;20427;-55
2023/05/08 01:05:34;;;;;;;12.73;6.70;;;15.90;1.00;;;;;;4969791;28;20774;-55
2023/05/08 01:08:00;;;;;;;15.10;6.85;;;15.90;1.00;;;;;;4969080;28;20467;-55
2023/05/08 01:10:41;;;;;;;14.63;6.90;;;15.80;1.00;;;;;;4970562;28;20790;-55
2023/05/08 01:13:49;;;;;;;15.40;6.90;;;15.80;1.00;;;;;;4973188;28;20396;-55
2023/05/08 01:16:35;;;;;;;11.20;6.30;;;15.90;1.00;;;;;;4973719;28;20415;-55
2023/05/08 01:19:14;;;;;;;12.43;6.70;;;15.90;1.00;;;;;;4973577;28;20869;-55
2023/05/08 01:21:55;;;;;;;10.32;5.72;;;16.00;1.00;;;;;;4974210;28;20495;-55
2023/05/08 01:24:42;;;;;;;12.82;6.50;;;16.00;1.00;;;;;;4956632;28;20714;-55
2023/05/08 01:27:11;;;;;;;14.98;7.22;;;16.00;1.00;;;;;;4971671;28;20420;-55
2023/05/08 01:30:03;;;;;;;11.20;6.07;;;16.00;1.00;;;;;;4973975;28;20490;-55
2023/05/08 01:32:35;;;;;;;12.00;6.72;;;16.00;1.00;;;;;;4961836;28;20766;-55
2023/05/08 01:35:09;;;;;;;15.48;6.82;;;16.00;1.00;;;;;;4965524;28;20972;-55
2023/05/08 01:37:59;;;;;;;12.30;6.70;;;16.00;1.00;;;;;;4973730;28;20482;-55
2023/05/08 01:40:39;;;;;;;11.25;6.78;;;16.00;1.00;;;;;;4950751;28;20466;-55
2023/05/08 01:43:32;;;;;;;11.80;6.50;;;16.00;1.00;;;;;;4972675;28;20501;-55
2023/05/08 01:46:18;;;;;;;13.50;6.55;;;16.00;1.00;;;;;;4973039;28;20426;-55
2023/05/08 01:48:49;;;;;;;12.60;6.70;;;15.90;1.00;;;;;;4973676;28;20400;-56
2023/05/08 01:51:22;;;;;;;12.20;7.40;;;15.90;1.00;;;;;;4973672;28;20464;-55
2023/05/08 01:53:54;;;;;;;12.05;6.35;;;15.90;1.00;;;;;;4972605;28;20463;-56
2023/05/08 01:56:24;;;;;;;14.88;7.00;;;16.00;1.00;;;;;;4973848;28;20415;-55
2023/05/08 01:58:51;;;;;;;12.70;6.57;;;15.90;1.00;;;;;;4973133;28;20420;-55
2023/05/08 02:01:22;;;;;;;14.27;6.90;;;15.90;1.00;;;;;;4973451;28;20435;-55
2023/05/08 02:03:49;;;;;;;12.73;6.93;;;16.00;1.00;;;;;;4955208;28;20494;-56
2023/05/08 02:06:18;;;;;;;13.77;7.03;;;16.10;1.00;;;;;;4973754;28;20400;-55
2023/05/08 02:08:45;;;;;;;14.30;7.10;;;16.10;1.00;;;;;;4973065;28;20414;-55
2023/05/08 02:11:13;;;;;;;13.15;6.93;;;16.10;1.00;;;;;;4973186;28;20486;-55
2023/05/08 02:13:40;;;;;;;15.60;8.30;;;16.00;1.00;;;;;;4972925;28;20802;-55
2023/05/08 02:16:08;;;;;;;14.70;7.60;;;16.10;1.00;;;;;;4972575;28;20403;-55
2023/05/08 02:18:36;;;;;;;16.33;7.70;;;16.10;1.00;;;;;;4966138;28;20404;-55
2023/05/08 02:21:04;;;;;;;14.52;8.60;;;16.10;1.00;;;;;;4972324;28;20470;-55
2023/05/08 02:23:32;;;;;;;16.33;8.30;;;16.10;1.00;;;;;;4972964;28;20420;-55
2023/05/08 02:26:00;;;;;;;15.23;8.18;;;16.40;1.00;;;;;;4971736;28;20408;-55
2023/05/08 02:28:28;;;;;;;14.68;7.80;;;16.30;1.00;;;;;;4972825;28;20415;-55
2023/05/08 02:30:56;;;;;;;13.00;7.07;;;16.30;1.00;;;;;;4972330;28;20499;-55
2023/05/08 02:33:23;;;;;;;14.93;7.78;;;16.40;1.00;;;;;;4972675;28;20408;-56
2023/05/08 02:35:50;;;;;;;13.85;7.68;;;16.40;1.00;;;;;;4972123;28;20463;-55
2023/05/08 02:38:20;;;;;;;14.27;8.18;;;16.40;1.00;;;;;;4972698;28;20400;-55
2023/05/08 02:40:50;;;;;;;13.73;7.85;;;16.50;1.00;;;;;;4972474;28;20404;-55
2023/05/08 02:43:16;;;;;;;16.08;8.02;;;16.40;1.00;;;;;;4972822;28;20443;-55
2023/05/08 02:46:06;;;;;;;14.40;7.93;;;16.40;1.00;;;;;;4972471;28;20439;-55
2023/05/08 02:48:39;;;;;;;13.40;7.40;;;16.40;1.00;;;;;;4972238;28;20896;-55
2023/05/08 02:51:24;;;;;;;16.00;8.00;;;16.30;1.00;;;;;;4971707;28;20404;-55
2023/05/08 02:53:55;;;;;;;12.50;7.10;;;16.30;1.00;;;;;;4971749;28;20447;-56
2023/05/08 02:56:36;;;;;;;14.38;8.13;;;16.30;1.00;;;;;;4972285;28;20912;-55
2023/05/08 02:59:16;;;;;;;14.48;8.43;;;16.30;1.00;;;;;;4971797;28;20400;-55
2023/05/08 03:02:21;;;;;;;14.98;8.00;;;16.20;1.00;;;;;;4972178;28;20404;-55
2023/05/08 03:04:50;;;;;;;14.32;7.70;;;16.10;1.00;;;;;;4970168;28;20428;-56
2023/05/08 03:07:18;;;;;;;16.40;9.50;;;16.20;1.00;;;;;;4972222;28;20419;-54
2023/05/08 03:09:49;;;;;;;16.23;8.63;;;16.20;1.00;;;;;;4972102;28;20885;-55
2023/05/08 03:12:21;;;;;;;17.17;9.43;;;16.30;1.00;;;;;;4971663;28;20405;-55
2023/05/08 03:14:55;;;;;;;17.83;9.55;;;16.30;1.00;;;;;;4971746;28;20851;-55
2023/05/08 03:17:24;;;;;;;23.63;10.18;;;16.30;1.00;;;;;;4971847;28;20463;-54
2023/05/08 03:19:54;;;;;;;20.92;10.70;;;16.30;1.00;;;;;;4971026;28;20500;-55
2023/05/08 03:22:21;;;;;;;19.90;10.65;;;16.40;1.00;;;;;;4972276;28;20392;-55
2023/05/08 03:24:48;;;;;;;21.38;11.45;;;16.30;1.00;;;;;;4971652;28;20420;-55
2023/05/08 03:27:16;;;;;;;18.48;10.90;;;16.40;1.00;;;;;;4971746;28;20492;-54
2023/05/08 03:29:44;;;;;;;21.25;11.95;;;16.30;1.00;;;;;;4971853;28;20455;-54
2023/05/08 03:32:11;;;;;;;34.40;18.88;;;16.30;1.00;;;;;;4970359;28;20444;-54
2023/05/08 03:34:38;;;;;;;27.40;13.63;;;16.40;1.00;;;;;;4971352;28;20388;-54
2023/05/08 03:37:04;;;;;;;23.88;11.90;;;16.10;1.00;;;;;;4971315;28;20388;-54
2023/05/08 03:39:30;;;;;;;20.02;11.07;;;16.00;1.00;;;;;;4972310;28;20384;-54
2023/05/08 03:41:56;;;;;;;21.07;11.43;;;16.00;1.00;;;;;;4970579;28;20419;-55
2023/05/08 03:44:23;;;;;;;21.70;11.55;;;15.90;1.00;;;;;;4972320;28;20412;-54
2023/05/08 03:46:49;;;;;;;23.63;11.17;;;15.70;1.00;;;;;;4971922;28;20412;-55
2023/05/08 03:49:17;;;;;;;21.20;11.35;;;15.80;1.00;;;;;;4971894;28;20446;-55
2023/05/08 03:51:44;;;;;;;22.00;11.60;;;15.80;1.00;;;;;;4969410;28;20404;-54
2023/05/08 03:54:09;;;;;;;24.35;12.38;;;15.90;1.00;;;;;;4971180;28;20461;-54
2023/05/08 03:56:35;;;;;;;22.45;11.30;;;15.90;1.00;;;;;;4971648;28;20487;-54
2023/05/08 03:59:23;;;;;;;23.27;12.17;;;15.90;1.00;;;;;;4970656;28;20412;-54
2023/05/08 04:02:08;;;;;;;26.57;12.30;;;16.00;1.00;;;;;;4963199;28;20404;-55
2023/05/08 04:04:39;;;;;;;19.77;11.07;;;16.10;1.00;;;;;;4970816;28;20769;-54
2023/05/08 04:07:13;;;;;;;17.98;9.55;;;16.00;1.00;;;;;;4970366;28;20468;-54
2023/05/08 04:10:01;;;;;;;17.73;10.23;;;16.00;1.00;;;;;;4967985;28;20417;-54
2023/05/08 04:12:30;;;;;;;20.30;9.70;;;16.00;1.00;;;;;;4962859;28;20915;-54
2023/05/08 04:15:03;;;;;;;19.27;9.45;;;16.00;1.00;;;;;;4969968;28;20504;-54
2023/05/08 04:18:08;;;;;;;17.85;9.73;;;16.00;1.00;;;;;;4970695;28;20404;-54
2023/05/08 04:20:37;;;;;;;17.60;9.20;;;15.90;1.00;;;;;;4909369;29;20409;-56
2023/05/08 04:23:04;;;;;;;17.20;9.00;;;16.10;1.00;;;;;;4907446;29;20428;-57
2023/05/08 04:25:34;;;;;;;16.95;8.73;;;16.10;1.00;;;;;;4937070;28;20408;-56
2023/05/08 04:28:01;;;;;;;14.40;8.20;;;16.00;1.00;;;;;;4964794;28;20421;-57
2023/05/08 04:30:27;;;;;;;15.25;8.55;;;16.00;1.00;;;;;;4970358;28;20412;-57
2023/05/08 04:32:54;;;;;;;14.20;7.80;;;16.10;1.00;;;;;;4970003;28;20411;-57
2023/05/08 04:35:19;;;;;;;17.45;8.32;;;16.10;1.00;;;;;;4971044;28;20404;-57
2023/05/08 04:37:46;;;;;;;13.63;7.85;;;16.10;1.00;;;;;;4970790;28;20564;-57
2023/05/08 04:40:12;;;;;;;14.80;7.37;;;16.00;1.00;;;;;;4969313;28;20415;-56
2023/05/08 04:42:41;;;;;;;12.23;7.63;;;16.00;1.00;;;;;;4968550;28;20754;-57
2023/05/08 04:45:07;;;;;;;14.35;7.65;;;16.10;1.00;;;;;;4960335;28;20414;-56
2023/05/08 04:47:33;;;;;;;12.33;7.13;;;16.20;1.00;;;;;;4970603;28;20411;-56
2023/05/08 04:49:59;;;;;;;15.40;8.02;;;16.40;1.00;;;;;;4969712;28;20408;-57
2023/05/08 04:52:24;;;;;;;12.13;7.03;;;16.40;1.00;;;;;;4970428;28;20403;-57
2023/05/08 04:54:50;;;;;;;11.80;7.25;;;16.40;1.00;;;;;;4969838;28;20396;-56
2023/05/08 04:57:16;;;;;;;14.40;8.15;;;16.60;1.00;;;;;;4969857;28;20499;-57
2023/05/08 04:59:41;;;;;;;12.67;7.67;;;16.60;1.00;;;;;;4969174;28;20404;-57
2023/05/08 05:02:07;;;;;;;12.67;7.30;;;16.60;1.00;;;;;;4968432;28;20396;-57
2023/05/08 05:04:35;;;;;;;14.50;7.70;;;16.60;1.00;;;;;;4970142;28;20530;-57
2023/05/08 05:07:01;;;;;;;13.88;8.02;;;16.70;1.00;;;;;;4965400;28;20412;-57
2023/05/08 05:09:27;;;;;;;11.88;6.88;;;16.70;1.00;;;;;;4970448;28;20491;-55
2023/05/08 05:11:52;;;;;;;12.73;6.80;;;16.80;1.00;;;;;;4969777;28;20986;-55
2023/05/08 05:14:18;;;;;;;11.90;6.30;;;16.80;1.00;;;;;;4964185;28;20408;-55
2023/05/08 05:16:44;;;;;;;13.25;7.05;;;16.90;1.00;;;;;;4966487;28;20494;-54
2023/05/08 05:19:09;;;;;;;11.00;6.55;;;16.80;1.00;;;;;;4969695;28;20407;-54
2023/05/08 05:21:36;;;;;;;11.57;6.80;;;16.70;1.00;;;;;;4970605;28;20392;-54
2023/05/08 05:24:03;;;;;;;12.80;7.50;;;16.60;1.00;;;;;;4969569;28;20439;-54
2023/05/08 05:26:29;;;;;;;11.82;6.57;;;16.60;1.00;;;;;;4970734;28;20392;-54
2023/05/08 05:28:54;;;;;;;12.32;6.60;;;16.80;1.00;;;;;;4962630;28;20895;-54
2023/05/08 05:31:20;;;;;;;10.80;6.30;;;16.90;1.00;;;;;;4950046;29;20883;-54
2023/05/08 05:33:45;;;;;;;11.00;5.90;;;16.80;1.00;;;;;;4951664;29;20817;-54
2023/05/08 05:36:11;;;;;;;11.50;6.40;;;16.60;1.00;;;;;;4950391;29;20398;-54
2023/05/08 05:38:37;;;;;;;11.63;6.43;;;16.60;1.00;;;;;;4950684;29;20424;-54
2023/05/08 05:41:02;;;;;;;12.10;6.80;;;16.60;1.00;;;;;;4950663;29;20393;-54
2023/05/08 05:43:28;;;;;;;13.90;7.70;;;16.50;1.00;;;;;;4951394;29;20406;-54
2023/05/08 05:45:55;;;;;;;13.57;7.20;;;16.50;1.00;;;;;;4950879;29;20485;-54
2023/05/08 05:48:20;;;;;;;14.83;8.50;;;16.70;1.00;;;;;;4951451;29;20389;-54
2023/05/08 05:50:46;;;;;;;17.42;9.60;;;16.80;1.00;;;;;;4951032;29;20402;-54
2023/05/08 05:53:12;;;;;;;14.90;7.97;;;16.90;1.00;;;;;;4950586;29;20783;-55
2023/05/08 05:55:38;;;;;;;13.18;7.47;;;16.80;1.00;;;;;;4951255;29;20800;-54
2023/05/08 05:58:03;;;;;;;11.10;7.13;;;16.70;1.00;;;;;;4952549;28;20557;-54
2023/05/08 06:00:32;;;;;;;13.93;7.27;;;16.50;1.00;;;;;;4954707;29;20406;-54
2023/05/08 06:02:57;;;;;;;14.10;7.50;;;16.50;1.00;;;;;;4953538;29;20433;-54
2023/05/08 06:05:23;;;;;;;13.55;7.60;;;16.60;1.00;;;;;;4946162;28;20837;-54
2023/05/08 06:07:49;;;;;;;13.17;6.50;;;16.50;1.00;;;;;;4946352;29;20457;-55
2023/05/08 06:10:14;;;;;;;14.37;7.33;;;16.40;1.00;;;;;;4943002;29;20388;-54
2023/05/08 06:12:40;;;;;;;16.20;7.80;;;16.60;1.00;;;;;;4935168;29;20453;-54
2023/05/08 06:15:06;;;;;;;14.80;8.00;;;16.70;1.00;;;;;;4950651;29;20876;-54
2023/05/08 06:17:32;;;;;;;14.30;8.40;;;16.80;1.00;;;;;;4954676;29;20398;-54
2023/05/08 06:19:58;;;;;;;16.47;8.50;;;16.90;1.00;;;;;;4953071;29;20420;-54
2023/05/08 06:22:24;;;;;;;13.80;8.10;;;16.80;1.00;;;;;;4947527;29;20419;-54
2023/05/08 06:24:53;;;;;;;14.48;8.05;;;16.70;1.00;;;;;;4934273;29;20419;-54
2023/05/08 06:27:21;;;;;;;17.40;8.30;;;16.70;1.00;;;;;;4934721;29;20631;-55
2023/05/08 06:29:49;;;;;;;13.80;8.10;;;16.80;1.00;;;;;;4948603;29;20501;-54
2023/05/08 06:32:15;;;;;;;12.60;7.75;;;16.80;1.00;;;;;;4954014;29;20382;-54
2023/05/08 06:34:40;;;;;;;12.30;7.40;;;16.80;1.00;;;;;;4954183;29;20402;-54
2023/05/08 06:37:06;;;;;;;13.40;7.00;;;16.70;1.00;;;;;;4953126;29;20421;-54
2023/05/08 06:39:31;;;;;;;16.00;7.97;;;16.60;1.00;;;;;;4960837;28;20874;-54
2023/05/08 06:41:57;;;;;;;15.07;8.17;;;16.60;1.00;;;;;;4972027;28;20389;-54
2023/05/08 06:44:22;;;;;;;14.05;7.63;;;16.70;1.00;;;;;;4972616;28;20408;-54
2023/05/08 06:46:48;;;;;;;15.50;7.95;;;16.60;1.00;;;;;;4973106;28;20947;-54
2023/05/08 06:49:14;;;;;;;14.10;8.23;;;16.60;1.00;;;;;;4972207;28;20408;-54
2023/05/08 06:51:40;;;;;;;13.03;7.33;;;16.60;1.00;;;;;;4972734;28;20443;-54
2023/05/08 06:54:07;;;;;;;14.00;7.70;;;16.60;1.00;;;;;;4972518;28;20410;-54
2023/05/08 06:56:33;;;;;;;13.40;6.90;;;16.70;1.00;;;;;;4972652;28;20388;-54
2023/05/08 06:58:59;;;;;;;14.20;7.80;;;18.10;1.00;;;;;;4972269;28;20420;-54
2023/05/08 07:01:25;;;;;;;13.75;7.45;;;16.60;1.00;;;;;;4972745;28;20404;-54
2023/05/08 07:03:50;;;;;;;14.30;8.30;;;16.60;1.00;;;;;;4972387;28;20423;-55
2023/05/08 07:06:18;;;;;;;11.65;6.97;;;16.60;1.00;;;;;;4972904;28;20388;-54
2023/05/08 07:08:44;;;;;;;14.23;7.53;;;16.60;1.00;;;;;;4971768;28;20409;-55
2023/05/08 07:11:09;;;;;;;13.03;7.40;;;16.60;1.00;;;;;;4971941;28;20376;-54
2023/05/08 07:13:35;;;;;;;13.13;7.17;;;16.60;1.00;;;;;;4966158;28;20402;-54
2023/05/08 07:16:01;;;;;;;12.05;7.30;;;16.70;1.00;;;;;;4952376;29;20911;-54
2023/05/08 07:18:27;;;;;;;14.27;8.57;;;16.60;1.00;;;;;;4952873;29;20390;-54
2023/05/08 07:20:53;;;;;;;15.63;7.73;;;16.60;1.00;;;;;;4952559;29;20463;-54
2023/05/08 07:23:18;;;;;;;13.10;7.30;;;16.50;1.00;;;;;;4953097;29;20453;-54
2023/05/08 07:25:44;;;;;;;13.43;8.10;;;16.50;1.00;;;;;;4952708;29;20891;-54
2023/05/08 07:28:10;;;;;;;13.67;7.60;;;16.70;1.00;;;;;;4952106;29;20433;-54
2023/05/08 07:30:36;;;;;;;14.35;7.85;;;16.80;1.00;;;;;;4953252;29;20857;-54
2023/05/08 07:33:02;;;;;;;14.87;9.00;;;16.80;1.00;;;;;;4951989;29;20485;-54
2023/05/08 07:35:28;;;;;;;15.40;8.10;;;16.90;1.00;;;;;;4952915;29;20414;-54
2023/05/08 07:37:54;;;;;;;13.83;8.10;;;17.00;1.00;;;;;;4952050;29;20847;-54
2023/05/08 07:40:19;;;;;;;13.68;7.82;;;17.00;1.00;;;;;;4952447;29;20390;-54
2023/05/08 07:42:45;;;;;;;14.70;8.50;;;17.10;1.00;;;;;;4952591;29;20386;-54
2023/05/08 07:45:12;;;;;;;14.23;8.17;;;17.30;1.00;;;;;;4951588;29;20418;-54
2023/05/08 07:47:46;;;;;;;14.80;8.95;;;17.50;1.00;;;;;;4952716;29;20464;-54
2023/05/08 07:50:12;;;;;;;13.27;7.65;;;17.50;1.00;;;;;;4951629;29;20477;-54
2023/05/08 07:52:38;;;;;;;14.73;8.87;;;17.50;1.00;;;;;;4952721;29;20469;-54
2023/05/08 07:55:04;;;;;;;17.80;9.03;;;17.50;1.00;;;;;;4951992;29;20776;-54
2023/05/08 07:57:40;;;;;;;16.67;9.48;;;17.60;1.00;;;;;;4952103;29;20414;-54
2023/05/08 08:00:11;;;;;;;18.60;10.00;;;17.70;1.00;;;;;;4951775;29;20390;-54
2023/05/08 08:02:37;;;;;;;15.85;9.32;;;17.70;1.00;;;;;;4951965;29;20868;-54
2023/05/08 08:05:04;;;;;;;15.05;9.10;;;18.00;1.00;;;;;;4951726;29;20417;-54
2023/05/08 08:07:31;;;;;;;16.93;9.13;;;17.90;99.90;;;;;;4952013;29;20406;-54
2023/05/08 08:09:57;;;;;;;15.23;8.65;;;18.10;1.00;;;;;;4951328;29;20401;-54
2023/05/08 08:12:23;;;;;;;13.68;8.10;;;18.10;1.00;;;;;;4951982;29;20398;-54
2023/05/08 08:14:49;;;;;;;14.97;8.67;;;18.40;1.00;;;;;;4950956;28;20388;-54
2023/05/08 08:17:15;;;;;;;17.70;9.67;;;18.30;29.00;;;;;;4970782;28;20790;-54
2023/05/08 08:19:41;;;;;;;17.53;9.67;;;18.40;99.90;;;;;;4970700;28;20384;-54
2023/05/08 08:22:06;;;;;;;15.95;9.10;;;18.40;99.90;;;;;;4970605;28;20411;-54
2023/05/08 08:24:32;;;;;;;20.92;9.18;;;18.30;99.90;;;;;;4971374;28;20411;-54
2023/05/08 08:26:57;;;;;;;15.95;9.27;;;18.50;82.30;;;;;;4970540;28;20408;-54
2023/05/08 08:29:23;;;;;;;14.77;8.50;;;18.60;1.00;;;;;;4971179;28;20419;-54
2023/05/08 08:31:49;;;;;;;17.03;8.60;;;18.70;99.90;;;;;;4971059;28;20388;-54
2023/05/08 08:34:14;;;;;;;14.93;8.47;;;18.80;1.00;;;;;;4970701;28;20936;-54
2023/05/08 08:36:41;;;;;;;13.40;7.78;;;18.80;1.00;;;;;;4971196;28;20401;-54
2023/05/08 08:39:07;;;;;;;13.40;8.02;;;18.90;1.00;;;;;;4970468;28;20402;-54
2023/05/08 08:41:32;;;;;;;15.53;8.20;;;18.80;1.00;;;;;;4970811;28;20714;-54
2023/05/08 08:43:58;;;;;;;14.10;7.73;;;18.10;1.00;;;;;;4970512;28;20426;-55
2023/05/08 08:46:26;;;;;;;14.32;8.02;;;18.80;1.00;;;;;;4970947;28;20900;-54
2023/05/08 08:48:54;;;;;;;13.93;7.78;;;18.70;1.00;;;;;;4970453;28;20455;-55
2023/05/08 08:51:44;;;;;;;14.43;8.25;;;18.70;1.00;;;;;;4970903;28;20479;-54
2023/05/08 08:54:12;;;;;;;15.23;8.90;;;18.70;99.90;;;;;;4969998;28;20824;-54
2023/05/08 08:56:41;;;;;;;15.65;9.25;;;18.80;99.90;;;;;;4970606;28;20392;-54
2023/05/08 08:59:08;;;;;;;15.30;8.40;;;18.90;3.60;;;;;;4970012;28;20479;-54
2023/05/08 09:01:36;;;;;;;15.63;8.60;;;18.60;99.90;;;;;;4970516;28;20400;-54
2023/05/08 09:04:02;;;;;;;15.15;8.70;;;18.50;1.00;;;;;;4969698;28;20415;-54
2023/05/08 09:06:28;;;;;;;16.00;9.30;;;18.40;99.90;;;;;;4970588;28;20396;-54
2023/05/08 09:08:57;;;;;;;18.25;8.48;;;18.50;99.90;;;;;;4970311;28;20478;-55
2023/05/08 09:11:23;;;;;;;16.13;8.80;;;18.50;1.00;;;;;;4970580;28;20395;-54
2023/05/08 09:13:50;;;;;;;14.90;9.10;;;18.50;1.00;;;;;;4962256;28;20394;-55
2023/05/08 09:16:16;;;;;;;16.08;9.45;;;18.40;15.20;;;;;;4950660;29;20406;-55
2023/05/08 09:18:41;;;;;;;14.40;9.10;;;18.50;99.90;;;;;;4951370;29;20398;-55
2023/05/08 09:21:07;;;;;;;16.13;9.20;;;18.50;99.90;;;;;;4950766;29;20869;-55
2023/05/08 09:23:35;;;;;;;16.30;9.50;;;18.60;99.90;;;;;;4950905;29;20456;-55
2023/05/08 09:26:01;;;;;;;14.73;8.47;;;18.50;99.90;;;;;;4942831;29;20485;-55
2023/05/08 09:28:26;;;;;;;17.17;9.00;;;18.50;99.90;;;;;;4951196;29;20512;-54
2023/05/08 09:30:55;;;;;;;17.80;8.93;;;18.50;99.90;;;;;;4951532;29;20564;-54
2023/05/08 09:33:24;;;;;;;16.60;8.25;;;18.40;99.90;;;;;;4953761;29;20409;-55
2023/05/08 09:35:50;;;;;;;14.43;8.50;;;18.40;99.90;;;;;;4954779;29;20832;-55
2023/05/08 09:38:33;;;;;;;15.30;9.80;;;18.40;99.90;;;;;;4954219;29;20386;-55
2023/05/08 09:41:09;;;;;;;14.98;8.93;;;18.40;99.90;;;;;;4953548;29;20421;-55
2023/05/08 09:43:36;;;;;;;14.32;8.05;;;18.40;99.90;;;;;;4954936;29;20915;-55
2023/05/08 09:46:21;;;;;;;15.83;9.30;;;18.30;99.90;;;;;;4953886;29;20981;-55
2023/05/08 09:48:48;;;;;;;16.17;10.18;;;18.20;99.90;;;;;;4954900;29;20385;-54
2023/05/08 09:51:13;;;;;;;16.63;10.30;;;18.10;99.90;;;;;;4953678;29;20450;-54
2023/05/08 09:53:39;;;;;;;17.17;9.65;;;18.00;1.00;;;;;;4954622;29;20585;-54
2023/05/08 09:56:05;;;;;;;23.95;9.93;;;17.90;1.00;;;;;;4953878;29;20412;-54
2023/05/08 09:58:44;;;;;;;18.00;9.38;;;18.00;1.00;;;;;;4954412;29;20393;-54
2023/05/08 10:01:28;;;;;;;17.23;10.05;;;17.90;1.00;;;;;;4953661;29;20401;-54
2023/05/08 10:03:53;;;;;;;17.80;9.32;;;17.90;1.00;;;;;;4953311;29;21019;-55
2023/05/08 10:06:19;;;;;;;17.20;9.75;;;17.80;1.00;;;;;;4954554;29;20473;-54
2023/05/08 10:08:45;;;;;;;18.02;10.13;;;17.70;1.00;;;;;;4954201;29;20482;-54
2023/05/08 10:11:18;;;;;;;14.93;9.50;;;17.80;1.00;;;;;;4936427;29;20796;-54
2023/05/08 10:13:45;;;;;;;15.83;9.20;;;17.90;1.00;;;;;;4961533;28;20454;-55
2023/05/08 10:16:16;;;;;;;15.77;9.60;;;18.10;1.00;;;;;;4972795;28;20451;-54
2023/05/08 10:18:49;;;;;;;16.45;9.55;;;18.40;1.00;;;;;;4973656;28;20471;-54
2023/05/08 10:21:16;;;;;;;15.63;9.50;;;18.70;1.00;;;;;;4973052;28;21026;-54
2023/05/08 10:23:42;;;;;;;18.13;9.85;;;18.90;99.90;;;;;;4973323;28;20579;-54
2023/05/08 10:26:13;;;;;;;16.87;9.40;;;19.10;99.90;;;;;;4972986;28;20447;-54
2023/05/08 10:29:00;;;;;;;16.77;9.37;;;19.40;99.90;;;;;;4972464;28;20412;-55
2023/05/08 10:31:34;;;;;;;14.37;8.70;;;19.70;99.90;;;;;;4973478;28;20400;-55
2023/05/08 10:34:01;;;;;;;15.27;8.77;;;19.90;99.90;;;;;;4972090;28;20407;-55
2023/05/08 10:36:29;;;;;;;16.50;8.67;;;20.30;99.90;;;;;;4973155;28;20387;-55
2023/05/08 10:38:57;;;;;;;14.07;8.38;;;20.40;99.90;;;;;;4972634;28;20802;-56
2023/05/08 10:41:24;;;;;;;16.17;9.00;;;20.50;1.00;;;;;;4973291;28;20434;-55
2023/05/08 10:43:52;;;;;;;15.05;8.57;;;20.30;1.00;;;;;;4972700;28;20447;-55
2023/05/08 10:46:27;;;;;;;14.80;8.17;;;20.60;99.90;;;;;;4972408;28;20467;-55
2023/05/08 10:49:03;;;;;;;14.43;7.97;;;20.70;99.90;;;;;;4973071;28;20396;-55
2023/05/08 10:51:51;;;;;;;16.77;8.60;;;20.50;1.00;;;;;;4972817;28;20404;-55
2023/05/08 10:54:47;;;;;;;15.20;7.95;;;20.50;99.90;;;;;;4972000;28;20392;-55
2023/05/08 10:57:14;;;;;;;15.38;7.88;;;20.50;1.00;;;;;;4972003;28;20438;-55
2023/05/08 10:59:46;;;;;;;17.98;8.68;;;20.50;99.90;;;;;;4972502;28;20400;-55
2023/05/08 11:02:12;;;;;;;16.30;8.40;;;20.60;99.90;;;;;;4972159;28;20893;-56
2023/05/08 11:04:39;;;;;;;15.45;8.30;;;20.60;99.90;;;;;;4972273;28;20431;-55
2023/05/08 11:07:05;;;;;;;16.63;8.25;;;20.60;1.00;;;;;;4971075;28;20420;-55
2023/05/08 11:09:48;;;;;;;15.10;8.10;;;20.60;99.90;;;;;;4972584;28;20714;-55
2023/05/08 11:12:29;;;;;;;12.90;7.60;;;20.70;99.90;;;;;;4972019;28;20396;-55
2023/05/08 11:15:04;;;;;;;16.60;8.50;;;20.70;99.90;;;;;;4972816;28;20436;-55
2023/05/08 11:17:31;;;;;;;13.18;7.80;;;20.50;99.90;;;;;;4972990;28;20869;-55
2023/05/08 11:20:00;;;;;;;17.33;9.45;;;20.20;99.90;;;;;;4972310;28;20847;-56
2023/05/08 11:22:33;;;;;;;16.77;8.60;;;20.20;1.00;;;;;;4972569;28;20372;-55
2023/05/08 11:25:09;;;;;;;15.43;8.70;;;20.10;99.90;;;;;;4954174;28;20416;-56
2023/05/08 11:27:48;;;;;;;14.87;8.43;;;20.20;9.40;;;;;;4972520;28;20400;-55
2023/05/08 11:30:34;;;;;;;18.38;9.25;;;20.30;1.00;;;;;;4954657;28;20862;-55
2023/05/08 11:33:04;;;;;;;13.40;7.90;;;20.70;99.90;;;;;;4952209;29;20390;-56
2023/05/08 11:35:47;;;;;;;13.20;7.80;;;20.80;99.90;;;;;;4952479;29;21031;-56
2023/05/08 11:38:21;;;;;;;14.85;9.00;;;21.20;99.90;;;;;;4952484;29;20453;-56
2023/05/08 11:41:20;;;;;;;15.25;8.98;;;21.40;99.90;;;;;;4952791;29;20484;-55
2023/05/08 11:44:08;;;;;;;15.43;8.70;;;21.20;1.00;;;;;;4941800;29;20449;-55
2023/05/08 11:46:42;;;;;;;16.20;8.50;;;20.90;1.00;;;;;;4952584;29;20400;-55
2023/05/08 11:49:18;;;;;;;17.23;9.00;;;20.40;1.00;;;;;;4951836;29;20407;-55
2023/05/08 11:51:49;;;;;;;15.05;8.70;;;20.50;1.00;;;;;;4952827;29;20856;-55
2023/05/08 11:54:17;;;;;;;14.73;8.73;;;20.60;1.00;;;;;;4951877;28;20394;-55
2023/05/08 11:56:45;;;;;;;18.67;9.23;;;20.60;50.70;;;;;;4951885;29;20484;-55
2023/05/08 11:59:12;;;;;;;16.60;9.80;;;20.60;1.00;;;;;;4951165;29;20737;-55
2023/05/08 12:01:37;;;;;;;18.55;10.60;;;20.60;6.60;;;;;;4952114;29;20743;-55
2023/05/08 12:04:08;;;;;;;15.83;9.40;;;20.50;99.90;;;;;;4951183;29;20708;-55
2023/05/08 12:06:36;;;;;;;16.60;10.40;;;20.40;99.90;;;;;;4952146;29;20390;-55
2023/05/08 12:09:08;;;;;;;19.27;10.50;;;20.30;99.90;;;;;;4951203;29;20472;-55
2023/05/08 12:11:34;;;;;;;18.30;10.80;;;20.10;1.00;;;;;;4952564;29;20382;-55
2023/05/08 12:14:00;;;;;;;19.65;10.10;;;19.90;99.90;;;;;;4951385;29;20919;-55
2023/05/08 12:16:25;;;;;;;19.38;11.05;;;19.80;99.90;;;;;;4952020;29;20378;-55
2023/05/08 12:18:52;;;;;;;17.43;10.03;;;19.90;1.00;;;;;;4952169;29;20413;-55
2023/05/08 12:21:18;;;;;;;19.80;11.10;;;19.70;99.90;;;;;;4951064;29;20389;-55
2023/05/08 12:23:44;;;;;;;22.33;11.65;;;19.40;81.10;;;;;;4952102;29;20421;-55
2023/05/08 12:26:11;;;;;;;18.00;11.07;;;19.30;99.90;;;;;;4951402;29;20394;-55
2023/05/08 12:28:37;;;;;;;19.00;10.70;;;19.50;99.90;;;;;;4956125;28;20913;-55
2023/05/08 12:31:03;;;;;;;18.83;10.40;;;19.40;1.00;;;;;;4970753;28;20477;-55
2023/05/08 12:33:29;;;;;;;20.77;11.88;;;19.10;99.90;;;;;;4971445;28;20402;-55
2023/05/08 12:35:55;;;;;;;20.17;11.35;;;18.80;99.90;;;;;;4970831;28;20797;-55
2023/05/08 12:38:26;;;;;;;19.50;11.88;;;18.70;1.00;;;;;;4970698;28;20447;-55
2023/05/08 12:40:54;;;;;;;21.70;12.50;;;18.60;1.00;;;;;;4971650;28;20392;-55
2023/05/08 12:43:20;;;;;;;22.98;11.32;;;18.60;1.00;;;;;;4970296;28;20385;-55
2023/05/08 12:45:49;;;;;;;21.63;11.48;;;18.50;1.00;;;;;;4970703;28;20411;-55
2023/05/08 12:48:15;;;;;;;21.92;10.70;;;18.60;1.00;;;;;;4969832;28;20395;-55
2023/05/08 12:50:44;;;;;;;21.42;11.52;;;18.50;1.00;;;;;;4970931;28;20858;-55
2023/05/08 12:53:18;;;;;;;23.48;12.18;;;18.40;1.00;;;;;;4970362;28;20400;-55
2023/05/08 12:55:55;;;;;;;20.35;11.35;;;18.50;1.00;;;;;;4971209;28;20743;-56